Airfield :







YOU CAN JOIN US ON...

 
LOGIN :

Register | Disclaimer

   EN    FR    IT 

 









Legend :    VFR   Marginal VFR   IFR   Intensive IFR   Very Intensive IFR
Visi :
Ceiling :
>= 8 km
>= 3000ft
5 to 8 km
1000 to 3000 ft
1500m to 5 km
500 to 1000 ft
800 to 1500m
200 to 500 ft
< 800m
< 200 ft
Symbols :   Thunderstorms  Fog  Heavy snow  Heavy precipitations  Wind > 20 kt






- Airport Elevation : 377 ft
- IATA code : YPS


CYPD - Port Hawkesbury

CURRENT METAR :
  • 100519Z AUTO 18016G32KT 9SM -RA FEW015 SCT043 OVC055 09/07 A3011 RMK SLP200

EXPIRED METARs :
  • 100509Z AUTO 18017G29KT 9SM FEW015 SCT043 BKN055 OVC066 09/07 A3011 RMK SLP201
  • 100443Z AUTO 18019G28KT 9SM -RA FEW017 BKN050 BKN110 OVC150 09/07 A3012 RMK SLP206
  • 100400Z AUTO 18018G27KT 9SM FEW110 BKN150 09/07 A3015 RMK SLP214
  • 100300Z AUTO 17013G20KT 9SM FEW012 BKN100 BKN120 08/06 A3019 RMK PRESFR SLP229

TAF N/A



MET'MAP, your aeronautical weather chart ! - Copyright ORBIFLY December 2007 - Disclaimer

ORBIFLY MET'MAP TEAM :

Programming & Development : Alexandra Zaïnal
Concept & original design : Baudouin d'Aumeries
Assistance for programming : Marc-Olivier Méhu
Technical & hardware support : Manuel Goepfert

Contact : metmap@orbifly.com




SOURCES & CREDITS :

   NOAA